createdAt,value
2023-08-26T00:02:25.826Z,22.30
2023-08-26T00:04:55.773Z,22.30
2023-08-26T00:07:24.585Z,22.30
2023-08-26T00:09:53.302Z,22.30
2023-08-26T00:12:21.787Z,22.30
2023-08-26T00:14:52.491Z,22.20
2023-08-26T00:17:21.064Z,22.30
2023-08-26T00:19:51.602Z,22.20
2023-08-26T00:22:22.286Z,22.20
2023-08-26T00:24:51.070Z,22.20
2023-08-26T00:27:20.365Z,22.20
2023-08-26T00:29:49.014Z,22.20
2023-08-26T00:32:20.156Z,22.10
2023-08-26T00:34:48.682Z,22.10
2023-08-26T00:37:17.808Z,22.10
2023-08-26T00:39:47.775Z,22.10
2023-08-26T00:42:16.137Z,22.10
2023-08-26T00:44:44.491Z,22.10
2023-08-26T00:47:12.926Z,22.10
2023-08-26T00:49:41.299Z,22.10
2023-08-26T00:52:10.511Z,22.00
2023-08-26T00:54:39.942Z,22.00
2023-08-26T00:57:12.598Z,22.00
2023-08-26T00:59:42.281Z,22.00
2023-08-26T01:02:12.862Z,22.00
2023-08-26T01:04:43.312Z,22.00
2023-08-26T01:07:12.089Z,22.00
2023-08-26T01:09:40.834Z,22.00
2023-08-26T01:12:20.546Z,22.10
2023-08-26T01:14:58.464Z,22.10
2023-08-26T01:17:30.670Z,22.10
2023-08-26T01:20:01.229Z,22.10
2023-08-26T01:22:30.906Z,22.10
2023-08-26T01:25:01.532Z,22.10
2023-08-26T01:27:30.979Z,22.10
2023-08-26T01:29:59.295Z,22.20
2023-08-26T01:32:34.385Z,22.30
2023-08-26T01:35:07.658Z,22.10
2023-08-26T01:37:40.214Z,22.30
2023-08-26T01:40:12.753Z,22.10
2023-08-26T01:42:43.911Z,22.30
2023-08-26T01:45:13.768Z,22.40
2023-08-26T01:47:42.533Z,22.40
2023-08-26T01:50:11.894Z,22.40
2023-08-26T01:52:42.078Z,22.40
2023-08-26T01:55:14.860Z,22.40
2023-08-26T01:57:43.480Z,22.50
2023-08-26T02:00:13.172Z,22.50
2023-08-26T02:02:44.703Z,22.60
2023-08-26T02:05:13.591Z,22.60
2023-08-26T02:07:43.905Z,22.60
2023-08-26T02:10:18.071Z,22.70
2023-08-26T02:12:49.711Z,22.70
2023-08-26T02:15:20.455Z,22.70
2023-08-26T02:17:49.109Z,22.80
2023-08-26T02:20:18.255Z,22.80
2023-08-26T02:22:49.557Z,22.90
2023-08-26T02:25:19.711Z,22.80
2023-08-26T02:27:48.350Z,22.80
2023-08-26T02:30:16.979Z,22.80
2023-08-26T02:32:45.610Z,22.80
2023-08-26T02:35:13.970Z,22.90
2023-08-26T02:37:42.566Z,22.80
2023-08-26T02:40:11.358Z,22.80
2023-08-26T02:42:41.128Z,22.90
2023-08-26T02:45:10.190Z,22.90
2023-08-26T02:47:38.546Z,22.80
2023-08-26T02:50:11.194Z,22.90
2023-08-26T02:52:39.880Z,22.90
2023-08-26T02:55:10.524Z,22.90
2023-08-26T02:57:41.147Z,22.90
2023-08-26T03:00:11.182Z,22.90
2023-08-26T03:02:39.878Z,23.00
2023-08-26T03:05:11.748Z,22.90
2023-08-26T03:08:26.117Z,23.00
2023-08-26T03:11:15.648Z,23.00
2023-08-26T03:13:54.739Z,23.00
2023-08-26T03:16:24.184Z,22.70
2023-08-26T03:18:59.252Z,23.00
2023-08-26T03:21:31.922Z,23.00
2023-08-26T03:24:09.289Z,23.10
2023-08-26T03:26:48.225Z,23.10
2023-08-26T03:29:28.902Z,23.10
2023-08-26T03:32:16.642Z,23.10
2023-08-26T03:34:49.532Z,23.10
2023-08-26T03:37:23.669Z,23.20
2023-08-26T03:39:52.372Z,23.10
2023-08-26T03:42:21.554Z,23.20
2023-08-26T03:44:51.880Z,23.20
2023-08-26T03:47:24.179Z,23.20
2023-08-26T03:49:52.741Z,23.30
2023-08-26T03:52:21.082Z,23.30
2023-08-26T03:54:51.124Z,23.30
2023-08-26T03:57:19.599Z,23.30
2023-08-26T03:59:48.930Z,23.30
2023-08-26T04:02:19.138Z,23.40
2023-08-26T04:04:47.752Z,23.40
2023-08-26T04:07:16.288Z,23.40
2023-08-26T04:09:45.556Z,23.40
2023-08-26T04:12:14.895Z,23.40
2023-08-26T04:14:43.265Z,23.40
2023-08-26T04:17:13.399Z,23.40
2023-08-26T04:19:44.217Z,23.40
2023-08-26T04:22:12.740Z,23.40
2023-08-26T04:24:43.221Z,23.50
2023-08-26T04:27:12.126Z,23.40
2023-08-26T04:29:43.966Z,23.50
2023-08-26T04:32:14.164Z,23.20
2023-08-26T04:34:46.178Z,23.60
2023-08-26T04:37:15.013Z,23.50
2023-08-26T04:39:44.871Z,23.50
2023-08-26T04:42:19.747Z,23.50
2023-08-26T04:44:48.350Z,23.50
2023-08-26T04:47:23.638Z,23.50
2023-08-26T04:49:54.959Z,23.50
2023-08-26T04:52:23.814Z,23.60
2023-08-26T04:54:56.804Z,23.60
2023-08-26T04:57:30.846Z,23.60
2023-08-26T05:00:07.327Z,23.60
2023-08-26T05:02:35.969Z,23.60
2023-08-26T05:05:11.853Z,23.60
2023-08-26T05:07:40.595Z,23.60
2023-08-26T05:10:10.348Z,23.60
2023-08-26T05:12:39.470Z,23.60
2023-08-26T05:15:08.933Z,23.60
2023-08-26T05:17:37.734Z,23.60
2023-08-26T05:20:09.564Z,23.60
2023-08-26T05:22:42.357Z,23.60
2023-08-26T05:25:11.097Z,23.50
2023-08-26T05:27:40.308Z,23.50
2023-08-26T05:30:13.830Z,23.60
2023-08-26T05:32:46.524Z,23.50
2023-08-26T05:35:19.291Z,23.50
2023-08-26T05:37:47.870Z,23.50
2023-08-26T05:40:18.251Z,23.30
2023-08-26T05:42:48.825Z,23.50
2023-08-26T05:45:17.258Z,23.40
2023-08-26T05:47:45.971Z,23.40
2023-08-26T05:50:16.509Z,23.40
2023-08-26T05:52:47.189Z,23.40
2023-08-26T05:55:17.939Z,23.40
2023-08-26T05:57:49.218Z,23.40
2023-08-26T06:00:21.759Z,23.40
2023-08-26T06:02:51.303Z,23.40
2023-08-26T06:05:24.662Z,23.40
2023-08-26T06:08:05.414Z,23.40
2023-08-26T06:10:37.269Z,23.40
2023-08-26T06:13:07.380Z,23.40
2023-08-26T06:15:36.068Z,23.50
2023-08-26T06:20:51.808Z,23.50
2023-08-26T06:23:39.809Z,23.50
2023-08-26T06:26:24.050Z,23.50
2023-08-26T06:28:55.984Z,23.60
2023-08-26T06:31:30.099Z,23.60
2023-08-26T06:34:20.693Z,23.70
2023-08-26T06:36:51.092Z,23.80
2023-08-26T06:39:24.263Z,23.70
2023-08-26T06:41:59.002Z,23.80
2023-08-26T06:44:46.033Z,23.90
2023-08-26T06:47:37.106Z,23.80
2023-08-26T06:50:15.716Z,23.80
2023-08-26T06:52:55.777Z,23.80
2023-08-26T06:55:27.719Z,23.90
2023-08-26T06:57:58.869Z,23.80
2023-08-26T07:00:28.533Z,23.80
2023-08-26T07:02:58.540Z,23.80
2023-08-26T07:05:27.232Z,23.80
2023-08-26T07:07:56.695Z,23.80
2023-08-26T07:10:30.293Z,23.90
2023-08-26T07:12:58.912Z,23.90
2023-08-26T07:15:30.297Z,23.90
2023-08-26T07:18:03.362Z,24.00
2023-08-26T07:20:40.297Z,24.00
2023-08-26T07:23:38.508Z,24.10
2023-08-26T07:26:21.807Z,24.30
2023-08-26T07:29:12.224Z,24.40
2023-08-26T07:31:44.329Z,24.60
2023-08-26T07:34:18.931Z,24.70
2023-08-26T07:37:00.516Z,24.80
2023-08-26T07:39:34.552Z,24.90
2023-08-26T07:42:17.520Z,25.10
2023-08-26T07:44:52.874Z,25.20
2023-08-26T07:47:24.871Z,25.30
2023-08-26T07:49:55.392Z,25.30
2023-08-26T07:52:28.085Z,25.50
2023-08-26T07:54:58.300Z,25.50
2023-08-26T07:58:03.096Z,25.90
2023-08-26T08:00:37.488Z,25.80
2023-08-26T08:03:13.957Z,26.20
2023-08-26T08:05:50.872Z,26.30
2023-08-26T08:08:31.612Z,26.40
2023-08-26T08:11:04.799Z,26.60
2023-08-26T08:13:37.946Z,26.90
2023-08-26T08:16:06.618Z,27.10
2023-08-26T08:18:48.540Z,27.20
2023-08-26T08:24:38.678Z,27.80
2023-08-26T08:27:23.138Z,27.70
2023-08-26T08:29:58.608Z,27.70
2023-08-26T08:32:41.365Z,27.80
2023-08-26T08:35:25.272Z,28.00
2023-08-26T08:38:01.966Z,28.10
2023-08-26T08:40:44.184Z,28.30
2023-08-26T08:43:20.738Z,28.40
2023-08-26T08:48:47.325Z,28.60
2023-08-26T08:51:28.616Z,28.70
2023-08-26T08:54:21.021Z,28.70
2023-08-26T08:57:14.388Z,28.70
2023-08-26T08:59:46.290Z,28.60
2023-08-26T09:03:02.088Z,28.60
2023-08-26T09:06:15.340Z,28.80
2023-08-26T09:08:52.993Z,29.00
2023-08-26T09:14:44.869Z,28.90
2023-08-26T09:17:27.321Z,29.00
2023-08-26T09:20:06.710Z,28.90
2023-08-26T09:22:47.409Z,28.80
2023-08-26T09:29:37.058Z,28.60
2023-08-26T09:32:11.528Z,28.50
2023-08-26T09:34:52.461Z,28.50
2023-08-26T09:37:59.290Z,28.40
2023-08-26T09:40:57.887Z,28.60
2023-08-26T09:43:42.300Z,28.40
2023-08-26T09:46:41.982Z,28.70
2023-08-26T09:50:09.001Z,28.90
2023-08-26T09:52:34.836Z,29.10
2023-08-26T09:55:30.226Z,29.10
2023-08-26T09:58:10.505Z,29.30
2023-08-26T10:01:05.403Z,29.30
2023-08-26T10:03:45.666Z,29.40
2023-08-26T10:06:33.164Z,29.50
2023-08-26T10:09:22.555Z,29.80
2023-08-26T10:12:21.737Z,29.90
2023-08-26T10:15:11.070Z,29.90
2023-08-26T10:18:00.048Z,29.30
2023-08-26T10:27:39.518Z,29.10
2023-08-26T10:34:05.680Z,28.90
2023-08-26T10:36:58.563Z,29.00
2023-08-26T10:40:05.091Z,29.00
2023-08-26T10:42:41.999Z,28.80
2023-08-26T10:45:23.304Z,28.90
2023-08-26T10:48:09.589Z,28.90
2023-08-26T10:50:42.883Z,29.00
2023-08-26T10:53:26.174Z,29.10
2023-08-26T10:55:57.022Z,29.20
2023-08-26T10:58:47.821Z,29.10
2023-08-26T11:01:34.462Z,29.00
2023-08-26T11:04:09.081Z,28.90
2023-08-26T11:06:49.429Z,28.90
2023-08-26T11:09:21.450Z,28.90
2023-08-26T11:12:00.047Z,28.90
2023-08-26T11:14:50.345Z,28.90
2023-08-26T11:20:33.819Z,28.90
2023-08-26T11:23:41.617Z,28.80
2023-08-26T11:30:34.157Z,29.10
2023-08-26T11:34:01.098Z,29.40
2023-08-26T11:37:23.229Z,29.90
2023-08-26T11:43:44.066Z,31.90
2023-08-26T11:50:55.691Z,34.10
2023-08-26T11:53:51.340Z,34.90
2023-08-26T11:56:27.289Z,35.40
2023-08-26T11:59:02.174Z,36.10
2023-08-26T12:02:07.078Z,36.70
2023-08-26T12:04:58.064Z,37.40
2023-08-26T12:07:57.666Z,38.00
2023-08-26T12:10:40.612Z,38.80
2023-08-26T12:13:23.956Z,39.30
2023-08-26T12:16:12.458Z,39.70
2023-08-26T12:19:07.267Z,40.30
2023-08-26T12:21:56.522Z,41.20
2023-08-26T12:24:50.160Z,42.20
2023-08-26T12:27:31.419Z,43.30
2023-08-26T12:30:07.795Z,42.10
2023-08-26T12:32:53.552Z,41.60
2023-08-26T12:36:11.809Z,41.50
2023-08-26T12:38:49.836Z,41.90
2023-08-26T12:41:35.261Z,42.30
2023-08-26T12:44:11.637Z,43.20
2023-08-26T12:46:44.013Z,44.20
2023-08-26T12:49:41.789Z,45.00
2023-08-26T12:52:22.041Z,45.30
2023-08-26T12:54:54.850Z,46.30
2023-08-26T12:57:45.271Z,46.40
2023-08-26T13:00:18.646Z,45.80
2023-08-26T13:02:50.728Z,44.80
2023-08-26T13:05:24.080Z,43.60
2023-08-26T13:08:03.839Z,42.90
2023-08-26T13:10:32.441Z,42.70
2023-08-26T13:13:02.455Z,42.10
2023-08-26T13:15:32.049Z,41.60
2023-08-26T13:18:03.165Z,41.10
2023-08-26T13:20:34.137Z,41.20
2023-08-26T13:23:09.626Z,41.60
2023-08-26T13:25:43.044Z,42.10
2023-08-26T13:28:15.607Z,41.90
2023-08-26T13:30:53.166Z,41.30
2023-08-26T13:33:22.240Z,40.50
2023-08-26T13:35:54.555Z,39.70
2023-08-26T13:38:23.196Z,38.90
2023-08-26T13:40:51.728Z,38.00
2023-08-26T13:43:21.971Z,37.30
2023-08-26T13:46:02.134Z,36.70
2023-08-26T13:48:31.319Z,36.10
2023-08-26T13:50:59.833Z,35.60
2023-08-26T13:53:39.478Z,35.20
2023-08-26T13:56:15.659Z,34.80
2023-08-26T14:01:45.871Z,34.30
2023-08-26T14:04:24.527Z,34.30
2023-08-26T14:06:59.729Z,33.80
2023-08-26T14:09:35.951Z,33.50
2023-08-26T14:12:13.819Z,33.50
2023-08-26T14:14:49.283Z,33.00
2023-08-26T14:17:24.576Z,33.40
2023-08-26T14:20:02.356Z,33.50
2023-08-26T14:22:38.668Z,33.70
2023-08-26T14:25:22.284Z,33.90
2023-08-26T14:32:05.990Z,33.80
2023-08-26T14:35:43.352Z,33.80
2023-08-26T14:38:18.200Z,33.50
2023-08-26T14:40:52.189Z,33.30
2023-08-26T14:43:24.062Z,33.20
2023-08-26T14:45:52.797Z,33.20
2023-08-26T14:48:26.118Z,33.10
2023-08-26T14:50:55.960Z,33.00
2023-08-26T14:53:24.365Z,32.80
2023-08-26T14:55:59.159Z,32.70
2023-08-26T14:58:27.652Z,32.60
2023-08-26T15:00:59.889Z,32.60
2023-08-26T15:03:42.779Z,32.60
2023-08-26T15:06:22.877Z,32.50
2023-08-26T15:09:03.960Z,32.40
2023-08-26T15:11:32.467Z,32.30
2023-08-26T15:14:00.698Z,32.10
2023-08-26T15:16:29.097Z,32.00
2023-08-26T15:19:02.174Z,31.90
2023-08-26T15:21:30.530Z,31.80
2023-08-26T15:24:01.013Z,31.70
2023-08-26T15:26:30.996Z,31.70
2023-08-26T15:29:00.878Z,31.40
2023-08-26T15:31:29.298Z,31.50
2023-08-26T15:33:59.124Z,31.40
2023-08-26T15:36:28.085Z,31.40
2023-08-26T15:38:56.936Z,31.30
2023-08-26T15:41:28.768Z,30.90
2023-08-26T15:43:57.310Z,31.30
2023-08-26T15:46:25.991Z,31.20
2023-08-26T15:48:54.397Z,30.90
2023-08-26T15:51:24.144Z,30.80
2023-08-26T15:53:52.579Z,30.60
2023-08-26T15:56:20.797Z,30.50
2023-08-26T15:58:51.574Z,30.30
2023-08-26T16:01:19.778Z,30.20
2023-08-26T16:03:48.206Z,30.10
2023-08-26T16:06:16.832Z,30.00
2023-08-26T16:08:46.291Z,29.90
2023-08-26T16:11:17.120Z,29.80
2023-08-26T16:13:45.527Z,29.70
2023-08-26T16:16:14.382Z,29.60
2023-08-26T16:18:42.721Z,29.50
2023-08-26T16:21:13.561Z,29.40
2023-08-26T16:24:11.713Z,29.30
2023-08-26T16:26:56.608Z,29.10
2023-08-26T16:29:25.268Z,29.00
2023-08-26T16:31:53.947Z,28.80
2023-08-26T16:34:22.322Z,28.60
2023-08-26T16:36:50.970Z,28.50
2023-08-26T16:39:21.047Z,28.30
2023-08-26T16:41:50.146Z,28.10
2023-08-26T16:44:18.665Z,28.00
2023-08-26T16:46:47.563Z,27.80
2023-08-26T16:49:15.942Z,27.50
2023-08-26T16:51:44.593Z,27.60
2023-08-26T16:54:13.646Z,27.30
2023-08-26T16:56:49.442Z,27.10
2023-08-26T16:59:22.816Z,27.10
2023-08-26T17:01:53.277Z,26.80
2023-08-26T17:04:25.226Z,26.80
2023-08-26T17:07:20.100Z,26.70
2023-08-26T17:09:51.653Z,26.60
2023-08-26T17:12:24.105Z,26.50
2023-08-26T17:14:52.897Z,26.50
2023-08-26T17:17:21.180Z,26.30
2023-08-26T17:19:50.173Z,26.30
2023-08-26T17:22:19.104Z,26.30
2023-08-26T17:24:47.546Z,26.20
2023-08-26T17:27:16.078Z,26.10
2023-08-26T17:29:46.202Z,26.00
2023-08-26T17:32:15.301Z,26.00
2023-08-26T17:34:43.721Z,25.90
2023-08-26T17:37:17.954Z,25.90
2023-08-26T17:39:46.462Z,25.80
2023-08-26T17:42:16.498Z,25.70
2023-08-26T17:44:46.648Z,25.60
2023-08-26T17:47:15.103Z,25.60
2023-08-26T17:49:43.745Z,25.50
2023-08-26T17:52:12.304Z,25.50
2023-08-26T17:57:45.464Z,25.20
2023-08-26T18:00:20.736Z,25.30
2023-08-26T18:02:53.820Z,25.30
2023-08-26T18:05:22.667Z,25.20
2023-08-26T18:08:00.072Z,25.10
2023-08-26T18:10:28.674Z,24.90
2023-08-26T18:13:00.233Z,24.70
2023-08-26T18:15:40.454Z,24.50
2023-08-26T18:18:18.903Z,24.30
2023-08-26T18:24:16.422Z,23.80
2023-08-26T18:26:44.949Z,23.90
2023-08-26T18:29:15.413Z,23.50
2023-08-26T18:32:03.083Z,23.50
2023-08-26T18:34:59.214Z,23.50
2023-08-26T18:37:37.369Z,23.50
2023-08-26T18:40:06.853Z,23.50
2023-08-26T18:42:35.620Z,23.40
2023-08-26T18:45:10.569Z,23.30
2023-08-26T18:47:42.792Z,23.30
2023-08-26T18:50:28.835Z,23.20
2023-08-26T18:53:00.771Z,23.10
2023-08-26T18:55:42.515Z,23.10
2023-08-26T19:01:41.825Z,23.30
2023-08-26T19:04:13.452Z,23.20
2023-08-26T19:06:42.596Z,23.20
2023-08-26T19:14:10.867Z,23.10
2023-08-26T19:21:08.355Z,23.10
2023-08-26T19:23:55.829Z,23.00
2023-08-26T19:26:33.708Z,23.00
2023-08-26T19:29:08.971Z,23.00
2023-08-26T19:36:03.669Z,23.00
2023-08-26T19:38:32.452Z,22.90
2023-08-26T19:41:14.123Z,22.80
2023-08-26T19:43:45.727Z,22.80
2023-08-26T19:49:40.856Z,22.60
2023-08-26T19:52:37.396Z,22.40
2023-08-26T19:55:06.260Z,22.20
2023-08-26T19:57:36.998Z,22.30
2023-08-26T20:00:10.028Z,22.20
2023-08-26T20:02:46.167Z,22.10
2023-08-26T20:05:14.477Z,22.10
2023-08-26T20:07:45.896Z,22.00
2023-08-26T20:13:01.397Z,21.90
2023-08-26T20:15:29.901Z,21.90
2023-08-26T20:17:58.461Z,21.90
2023-08-26T20:20:27.540Z,21.80
2023-08-26T20:22:56.511Z,21.80
2023-08-26T20:25:38.300Z,21.80
2023-08-26T20:28:16.746Z,21.70
2023-08-26T20:30:44.943Z,21.60
2023-08-26T20:33:13.270Z,21.60
2023-08-26T20:35:41.764Z,21.60
2023-08-26T20:38:10.280Z,21.60
2023-08-26T20:40:43.289Z,21.60
2023-08-26T20:43:13.298Z,21.50
2023-08-26T20:45:43.480Z,21.50
2023-08-26T20:48:12.050Z,21.50
2023-08-26T20:50:40.261Z,21.40
2023-08-26T20:53:08.564Z,21.40
2023-08-26T20:55:39.135Z,21.40
2023-08-26T20:58:07.534Z,21.30
2023-08-26T21:00:35.731Z,21.40
2023-08-26T21:03:07.750Z,21.40
2023-08-26T21:05:36.215Z,21.30
2023-08-26T21:08:08.276Z,21.30
2023-08-26T21:10:43.602Z,21.30
2023-08-26T21:13:12.024Z,21.30
2023-08-26T21:15:41.239Z,21.40
2023-08-26T21:18:13.457Z,21.30
2023-08-26T21:20:42.285Z,21.40
2023-08-26T21:23:10.648Z,21.40
2023-08-26T21:25:41.132Z,21.40
2023-08-26T21:28:09.872Z,21.40
2023-08-26T21:30:38.138Z,21.40
2023-08-26T21:33:08.218Z,21.40
2023-08-26T21:35:37.974Z,21.40
2023-08-26T21:38:06.403Z,21.40
2023-08-26T21:40:34.683Z,21.40
2023-08-26T21:43:02.867Z,21.40
2023-08-26T21:45:31.055Z,21.40
2023-08-26T21:47:59.503Z,21.40
2023-08-26T21:50:27.831Z,21.40
2023-08-26T21:52:57.737Z,21.40
2023-08-26T21:55:26.398Z,21.40
2023-08-26T21:58:05.536Z,21.30
2023-08-26T22:00:37.012Z,21.30
2023-08-26T22:03:05.954Z,21.30
2023-08-26T22:05:36.922Z,21.20
2023-08-26T22:08:07.499Z,21.20
2023-08-26T22:10:35.967Z,21.10
2023-08-26T22:13:05.100Z,21.10
2023-08-26T22:15:33.671Z,21.00
2023-08-26T22:18:02.040Z,20.90
2023-08-26T22:20:32.650Z,20.90
2023-08-26T22:23:01.002Z,20.80
2023-08-26T22:25:31.346Z,20.70
2023-08-26T22:28:02.373Z,20.70
2023-08-26T22:30:30.519Z,20.70
2023-08-26T22:32:59.084Z,20.60
2023-08-26T22:35:30.045Z,20.60
2023-08-26T22:37:58.174Z,20.60
2023-08-26T22:40:26.405Z,20.50
2023-08-26T22:42:55.993Z,20.50
2023-08-26T22:45:24.316Z,20.50
2023-08-26T22:47:52.814Z,20.40
2023-08-26T22:50:21.420Z,20.40
2023-08-26T22:52:49.620Z,20.30
2023-08-26T22:55:18.349Z,20.30
2023-08-26T22:57:48.540Z,20.30
2023-08-26T23:00:30.373Z,20.20
2023-08-26T23:02:59.281Z,20.20
2023-08-26T23:05:35.729Z,20.10
2023-08-26T23:08:08.898Z,20.10
2023-08-26T23:10:42.008Z,20.10
2023-08-26T23:13:13.704Z,20.10
2023-08-26T23:15:44.179Z,20.00
2023-08-26T23:18:22.912Z,20.00
2023-08-26T23:20:53.960Z,20.00
2023-08-26T23:23:26.542Z,19.90
2023-08-26T23:26:00.437Z,20.00
2023-08-26T23:28:29.136Z,19.90
2023-08-26T23:30:59.295Z,19.90
2023-08-26T23:33:28.047Z,20.00
2023-08-26T23:35:56.556Z,20.00
2023-08-26T23:38:27.748Z,20.00
2023-08-26T23:40:59.410Z,20.10
2023-08-26T23:43:27.967Z,20.10
2023-08-26T23:45:59.856Z,20.10
2023-08-26T23:48:30.697Z,20.10
2023-08-26T23:51:05.450Z,20.10
2023-08-26T23:53:36.148Z,20.20
2023-08-26T23:56:06.962Z,20.10
2023-08-26T23:58:39.961Z,20.20
